Terminal Aerodrome Forecast
Issued by NWS

Home | Current Version | Previous Version | Text Only | Print | Product List | Glossary On
Versions: 1 2 3 4 5 6 7 8 9 10 11 12 13 14 15 16
000
FTUS46 KSGX 291627 AAA
TAFSNA
TAF AMD
KSNA 291627Z 2916/3012 VRB03KT P6SM BKN015
     FM291730 VRB05KT P6SM FEW015 FEW100
     FM291900 22010KT P6SM SCT100
     FM300200 VRB06KT P6SM BKN012 BKN100=

USA.gov is the U.S. government's official web portal to all federal, state and local government web resources and services.